CMB814 Details

Departure: RAF Mildenhall (EGUN)
Arrival: Joint Base McGuire Dix Lakehurst (KWRI)
Notes: USTRANSCOM CONTRACT FLIGHT


Current Weather Information
EGUN 252256Z 27004KT 9999 CLR 02/02 A3055 RMK AO2A SLP349 WND DATA ESTMD T00190019 $
KWRI 252343Z AUTO 36008KT 10SM OVC035 06/03 A3004 RMK AO2 RAE09RAB33E43 SLP173 $